Time;durP1;ratioP1;P1;durP2;ratioP2;P2;SDS_P1;SDS_P2;PMS_P1;PMS_P2;Temp;Humidity;BMP_temperature;BMP_pressure;BME280_temperature;BME280_humidity;BME280_pressure;Samples;Min_cycle;Max_cycle;Signal;HPM_P1;HPM_P2
2023/05/12 00:00:18;;;;;;;8.05;5.80;;;12.50;99.90;;;;;;5015625;28;20025;-83
2023/05/12 00:02:44;;;;;;;6.53;5.47;;;12.40;99.90;;;;;;5015808;28;20055;-83
2023/05/12 00:05:10;;;;;;;7.75;5.28;;;12.40;99.90;;;;;;5014474;28;20032;-82
2023/05/12 00:07:35;;;;;;;8.32;5.95;;;12.40;99.90;;;;;;5014769;28;20030;-84
2023/05/12 00:10:01;;;;;;;7.18;5.13;;;12.40;99.90;;;;;;5016007;28;20041;-84
2023/05/12 00:12:27;;;;;;;7.85;5.38;;;12.40;99.90;;;;;;5014121;28;20041;-83
2023/05/12 00:14:52;;;;;;;9.50;6.45;;;12.40;99.90;;;;;;5015223;28;20052;-83
2023/05/12 00:17:18;;;;;;;10.27;6.40;;;12.40;99.90;;;;;;5014656;28;20041;-83
2023/05/12 00:19:43;;;;;;;6.78;5.43;;;12.40;99.90;;;;;;5016783;28;20083;-83
2023/05/12 00:22:10;;;;;;;8.27;6.43;;;12.40;99.90;;;;;;5015894;28;20038;-82
2023/05/12 00:24:35;;;;;;;8.70;6.30;;;12.40;99.90;;;;;;5014703;28;20026;-82
2023/05/12 00:27:01;;;;;;;8.32;6.20;;;12.40;99.90;;;;;;5016178;28;20107;-82
2023/05/12 00:29:26;;;;;;;7.70;6.05;;;12.40;99.90;;;;;;5015029;28;20049;-83
2023/05/12 00:31:53;;;;;;;9.82;7.13;;;12.40;99.90;;;;;;5016054;28;20033;-83
2023/05/12 00:34:19;;;;;;;8.35;6.35;;;12.40;99.90;;;;;;5013473;28;20056;-83
2023/05/12 00:36:44;;;;;;;9.07;6.45;;;12.40;99.90;;;;;;5014768;28;20033;-82
2023/05/12 00:39:10;;;;;;;8.30;5.40;;;12.30;99.90;;;;;;5015232;28;20127;-83
2023/05/12 00:41:36;;;;;;;7.53;5.55;;;12.30;99.90;;;;;;5015853;28;20022;-82
2023/05/12 00:44:01;;;;;;;7.82;5.22;;;12.30;99.90;;;;;;5023911;28;20376;-83
2023/05/12 00:46:27;;;;;;;8.15;5.28;;;12.30;99.90;;;;;;5016400;28;20116;-82
2023/05/12 00:48:52;;;;;;;6.47;4.68;;;12.30;99.90;;;;;;5015455;28;20036;-84
2023/05/12 00:51:18;;;;;;;6.88;4.65;;;12.30;99.90;;;;;;5014923;28;20029;-84
2023/05/12 00:53:44;;;;;;;7.00;4.60;;;12.30;99.90;;;;;;5015456;28;20033;-82
2023/05/12 00:56:11;;;;;;;7.72;5.15;;;12.20;99.90;;;;;;5014011;28;20109;-83
2023/05/12 00:58:37;;;;;;;6.43;4.50;;;12.30;99.90;;;;;;5013378;28;20037;-84
2023/05/12 01:01:03;;;;;;;5.35;3.92;;;12.20;99.90;;;;;;5012860;28;20098;-83
2023/05/12 01:03:29;;;;;;;6.40;4.03;;;12.20;99.90;;;;;;5027710;28;20087;-84
2023/05/12 01:06:22;;;;;;;6.55;3.65;;;12.20;99.90;;;;;;5013227;28;20040;-83
2023/05/12 01:08:48;;;;;;;4.93;3.60;;;12.20;99.90;;;;;;5013465;28;20466;-84
2023/05/12 01:11:16;;;;;;;5.72;4.00;;;12.20;99.90;;;;;;5012922;28;20050;-84
2023/05/12 01:13:42;;;;;;;6.07;4.10;;;12.20;99.90;;;;;;5014552;28;20033;-84
2023/05/12 01:16:11;;;;;;;5.22;3.10;;;12.20;99.90;;;;;;5013508;28;20580;-83
2023/05/12 01:18:40;;;;;;;4.88;3.30;;;12.20;99.90;;;;;;5013334;28;20097;-84
2023/05/12 01:21:06;;;;;;;6.07;2.90;;;12.10;99.90;;;;;;5012911;28;20037;-83
2023/05/12 01:23:41;;;;;;;4.57;3.08;;;12.20;99.90;;;;;;5013513;28;20483;-84
2023/05/12 01:26:08;;;;;;;3.78;2.40;;;12.10;99.90;;;;;;5013175;28;20025;-83
2023/05/12 01:28:35;;;;;;;3.88;2.60;;;12.20;99.90;;;;;;5027936;28;20018;-84
2023/05/12 01:31:02;;;;;;;4.00;2.58;;;12.20;99.90;;;;;;5012528;28;20042;-83
2023/05/12 01:33:28;;;;;;;3.70;1.85;;;12.10;99.90;;;;;;5012539;28;20062;-84
2023/05/12 01:35:54;;;;;;;3.75;2.03;;;12.10;99.90;;;;;;5013128;28;20100;-83
2023/05/12 01:38:19;;;;;;;4.70;2.47;;;12.10;99.90;;;;;;5011954;28;20168;-83
2023/05/12 01:40:45;;;;;;;3.72;2.13;;;12.10;99.90;;;;;;5013602;28;20026;-82
2023/05/12 01:43:10;;;;;;;3.53;1.95;;;12.10;99.90;;;;;;5013459;28;20029;-84
2023/05/12 01:45:37;;;;;;;3.42;2.13;;;12.10;99.90;;;;;;5015855;28;20434;-82
2023/05/12 01:48:03;;;;;;;5.38;2.60;;;12.10;99.90;;;;;;5013792;28;20157;-84
2023/05/12 01:50:28;;;;;;;4.45;2.45;;;12.10;99.90;;;;;;5013270;28;20538;-83
2023/05/12 01:52:54;;;;;;;3.63;2.42;;;12.10;99.90;;;;;;5014045;28;20035;-84
2023/05/12 01:55:19;;;;;;;3.13;2.00;;;12.00;99.90;;;;;;5012400;28;20506;-82
2023/05/12 01:57:45;;;;;;;4.15;2.08;;;12.00;99.90;;;;;;5017828;28;20077;-82
2023/05/12 02:00:11;;;;;;;3.35;1.88;;;12.10;99.90;;;;;;5012842;28;20040;-84
2023/05/12 02:02:37;;;;;;;3.35;1.80;;;12.10;99.90;;;;;;5013891;28;20033;-83
2023/05/12 02:05:03;;;;;;;4.35;2.58;;;12.10;99.90;;;;;;5012967;28;20079;-82
2023/05/12 02:07:28;;;;;;;3.58;2.00;;;12.10;99.90;;;;;;5013359;28;20029;-83
2023/05/12 02:09:54;;;;;;;3.90;2.47;;;12.10;99.90;;;;;;5016073;28;20049;-83
2023/05/12 02:12:19;;;;;;;4.53;3.00;;;12.10;99.90;;;;;;5014259;28;20033;-83
2023/05/12 02:14:45;;;;;;;4.80;2.90;;;12.10;99.90;;;;;;5012773;28;20026;-83
2023/05/12 02:17:10;;;;;;;6.10;2.90;;;12.10;99.90;;;;;;5015595;28;20108;-83
2023/05/12 02:19:36;;;;;;;7.78;3.70;;;12.10;99.90;;;;;;5016848;28;20044;-82
2023/05/12 02:22:01;;;;;;;7.53;3.83;;;12.10;99.90;;;;;;5033271;28;20402;-82
2023/05/12 02:24:27;;;;;;;7.07;4.18;;;12.10;99.90;;;;;;5016295;28;20017;-83
2023/05/12 02:26:52;;;;;;;8.55;5.00;;;12.10;99.90;;;;;;5018380;28;20030;-82
2023/05/12 02:29:18;;;;;;;11.30;6.35;;;12.10;99.90;;;;;;5016904;28;20036;-82
2023/05/12 02:31:43;;;;;;;9.45;6.18;;;12.10;99.90;;;;;;5017689;28;20041;-83
2023/05/12 02:34:09;;;;;;;13.38;7.47;;;12.10;99.90;;;;;;5017817;28;20083;-83
2023/05/12 02:36:34;;;;;;;10.88;6.00;;;12.10;99.90;;;;;;5016478;28;20040;-82
2023/05/12 02:39:00;;;;;;;11.45;6.95;;;12.10;99.90;;;;;;5018057;28;20625;-83
2023/05/12 02:41:26;;;;;;;12.40;7.47;;;12.10;99.90;;;;;;5021168;28;20655;-83
2023/05/12 02:43:52;;;;;;;13.57;8.05;;;12.10;99.90;;;;;;5016175;28;20070;-82
2023/05/12 02:46:23;;;;;;;14.82;8.93;;;12.00;99.90;;;;;;5014216;28;20479;-82
2023/05/12 02:48:49;;;;;;;15.82;9.20;;;12.10;99.90;;;;;;5016216;28;20079;-83
2023/05/12 02:51:14;;;;;;;15.45;9.52;;;12.10;99.90;;;;;;5016615;28;20474;-83
2023/05/12 02:53:40;;;;;;;13.70;8.35;;;12.00;99.90;;;;;;5015935;28;20788;-83
2023/05/12 02:56:06;;;;;;;17.02;9.70;;;12.10;99.90;;;;;;5017742;28;20030;-83
2023/05/12 02:58:32;;;;;;;17.85;10.68;;;12.10;99.90;;;;;;5017715;28;20442;-83
2023/05/12 03:00:58;;;;;;;15.60;9.73;;;12.10;99.90;;;;;;5014701;28;20025;-83
2023/05/12 03:03:23;;;;;;;14.98;9.27;;;12.10;99.90;;;;;;5016486;28;20152;-83
2023/05/12 03:05:50;;;;;;;17.67;10.77;;;12.10;99.90;;;;;;5016562;28;20060;-82
2023/05/12 03:08:15;;;;;;;14.80;9.10;;;12.10;99.90;;;;;;5016749;28;20038;-84
2023/05/12 03:10:42;;;;;;;16.15;10.73;;;12.10;99.90;;;;;;5016282;28;20045;-83
2023/05/12 03:13:08;;;;;;;16.60;10.65;;;12.10;99.90;;;;;;5017958;28;20385;-84
2023/05/12 03:15:35;;;;;;;21.27;12.30;;;12.20;99.90;;;;;;5015557;28;20036;-82
2023/05/12 03:18:01;;;;;;;19.83;11.57;;;12.10;99.90;;;;;;5015228;28;20038;-83
2023/05/12 03:20:26;;;;;;;18.85;10.93;;;12.10;99.90;;;;;;5015687;28;20032;-83
2023/05/12 03:22:52;;;;;;;20.70;13.13;;;12.10;99.90;;;;;;5019626;28;20093;-82
2023/05/12 03:25:17;;;;;;;21.38;13.35;;;12.10;99.90;;;;;;5016436;28;20112;-82
2023/05/12 03:27:43;;;;;;;24.20;13.85;;;12.10;99.90;;;;;;5017278;28;20029;-83
2023/05/12 03:30:09;;;;;;;21.73;13.40;;;12.10;99.90;;;;;;5016304;28;20978;-83
2023/05/12 03:32:37;;;;;;;26.15;14.45;;;12.10;99.90;;;;;;5015222;28;20055;-83
2023/05/12 03:35:04;;;;;;;25.70;14.25;;;12.10;99.90;;;;;;5016390;28;20025;-83
2023/05/12 03:37:30;;;;;;;23.02;13.93;;;12.10;99.90;;;;;;5015806;28;20128;-82
2023/05/12 03:39:56;;;;;;;25.15;16.13;;;12.10;99.90;;;;;;5016841;28;20578;-83
2023/05/12 03:42:22;;;;;;;28.67;16.63;;;12.10;99.90;;;;;;5016900;28;20401;-84
2023/05/12 03:44:52;;;;;;;24.70;16.23;;;12.20;99.90;;;;;;5016598;28;20498;-82
2023/05/12 03:47:17;;;;;;;25.15;14.85;;;12.10;99.90;;;;;;5015029;28;20037;-83
2023/05/12 03:49:43;;;;;;;23.08;14.52;;;12.10;99.90;;;;;;5015511;28;20029;-82
2023/05/12 03:52:09;;;;;;;19.38;12.30;;;12.20;99.90;;;;;;5012298;28;20367;-82
2023/05/12 03:54:34;;;;;;;24.15;13.80;;;12.20;99.90;;;;;;5015292;28;20402;-84
2023/05/12 03:57:00;;;;;;;22.05;14.60;;;12.20;99.90;;;;;;5014556;28;20030;-82
2023/05/12 03:59:26;;;;;;;25.92;15.02;;;12.20;99.90;;;;;;5015432;28;20072;-82
2023/05/12 04:01:54;;;;;;;26.70;15.57;;;12.30;99.90;;;;;;5013445;28;20026;-82
2023/05/12 04:04:20;;;;;;;27.50;16.73;;;12.30;99.90;;;;;;5015686;28;20026;-83
2023/05/12 04:06:46;;;;;;;24.83;14.93;;;12.30;99.90;;;;;;5013690;28;20487;-83
2023/05/12 04:09:11;;;;;;;23.48;14.50;;;12.30;99.90;;;;;;5016424;28;20041;-83
2023/05/12 04:11:37;;;;;;;25.10;16.45;;;12.30;99.90;;;;;;5015805;28;20041;-82
2023/05/12 04:14:02;;;;;;;29.88;18.02;;;12.40;99.90;;;;;;5014874;28;20037;-82
2023/05/12 04:16:28;;;;;;;33.78;19.00;;;12.40;99.90;;;;;;5015223;28;20175;-83
2023/05/12 04:18:53;;;;;;;27.50;16.30;;;12.40;99.90;;;;;;5015435;28;20041;-82
2023/05/12 04:21:19;;;;;;;32.42;19.85;;;12.40;99.90;;;;;;5014635;28;20025;-82
2023/05/12 04:23:44;;;;;;;33.90;20.63;;;12.40;99.90;;;;;;5015339;28;20029;-81
2023/05/12 04:26:10;;;;;;;32.83;19.85;;;12.50;99.90;;;;;;5016849;28;20547;-83
2023/05/12 04:28:36;;;;;;;31.15;18.60;;;12.50;99.90;;;;;;5015238;28;20040;-82
2023/05/12 04:31:04;;;;;;;29.73;17.88;;;12.50;99.90;;;;;;5012963;28;20071;-81
2023/05/12 04:33:30;;;;;;;29.73;18.08;;;12.50;99.90;;;;;;5013418;28;20033;-82
2023/05/12 04:35:56;;;;;;;28.65;18.52;;;12.50;99.90;;;;;;5015511;28;20026;-82
2023/05/12 04:38:22;;;;;;;26.45;16.67;;;12.50;99.90;;;;;;5014252;28;20652;-82
2023/05/12 04:40:47;;;;;;;27.30;17.45;;;12.50;99.90;;;;;;5014639;28;20053;-83
2023/05/12 04:43:13;;;;;;;32.83;20.85;;;12.60;99.90;;;;;;5016361;28;20155;-82
2023/05/12 04:45:38;;;;;;;28.50;17.92;;;12.60;99.90;;;;;;5014752;28;20050;-82
2023/05/12 04:48:04;;;;;;;32.17;19.58;;;12.60;99.90;;;;;;5015158;28;20036;-82
2023/05/12 04:50:30;;;;;;;28.40;18.17;;;12.70;99.90;;;;;;5013499;28;20036;-83
2023/05/12 04:52:55;;;;;;;31.52;18.75;;;12.70;99.90;;;;;;5014189;28;20037;-83
2023/05/12 04:55:21;;;;;;;33.25;20.15;;;12.70;99.90;;;;;;5014772;28;20498;-83
2023/05/12 04:57:47;;;;;;;36.03;21.88;;;12.80;99.90;;;;;;5014959;28;20045;-81
2023/05/12 05:00:13;;;;;;;41.75;24.52;;;12.80;99.90;;;;;;5014070;28;20022;-83
2023/05/12 05:02:40;;;;;;;41.72;24.30;;;12.80;99.90;;;;;;5018809;28;20044;-82
2023/05/12 05:05:06;;;;;;;35.00;21.98;;;12.90;99.90;;;;;;5015720;28;20053;-82
2023/05/12 05:07:31;;;;;;;36.05;22.45;;;12.90;99.90;;;;;;5013896;28;20044;-82
2023/05/12 05:09:57;;;;;;;37.00;22.42;;;12.90;99.90;;;;;;5030394;28;20037;-83
2023/05/12 05:12:23;;;;;;;34.72;21.33;;;13.00;99.90;;;;;;5013638;28;20040;-82
2023/05/12 05:14:48;;;;;;;32.85;20.55;;;13.00;99.90;;;;;;5014446;28;20036;-83
2023/05/12 05:17:14;;;;;;;33.45;21.13;;;13.00;99.90;;;;;;5013388;28;20030;-83
2023/05/12 05:19:40;;;;;;;31.95;20.35;;;13.00;99.90;;;;;;5014381;28;20029;-83
2023/05/12 05:22:06;;;;;;;33.17;20.55;;;13.00;99.90;;;;;;5013929;28;20034;-83
2023/05/12 05:24:32;;;;;;;33.70;19.90;;;13.10;99.90;;;;;;5014272;28;20025;-83
2023/05/12 05:26:58;;;;;;;28.55;18.60;;;13.10;99.90;;;;;;5015389;28;20032;-82
2023/05/12 05:29:25;;;;;;;32.42;20.23;;;13.10;99.90;;;;;;5014745;28;20546;-82
2023/05/12 05:31:51;;;;;;;38.08;21.98;;;13.20;99.90;;;;;;5013395;28;20026;-83
2023/05/12 05:34:17;;;;;;;33.20;20.42;;;13.20;99.90;;;;;;5013864;28;20398;-83
2023/05/12 05:36:42;;;;;;;30.45;19.45;;;13.20;99.90;;;;;;5014002;28;20037;-82
2023/05/12 05:39:09;;;;;;;27.02;18.23;;;13.30;99.90;;;;;;5012974;28;20030;-82
2023/05/12 05:41:34;;;;;;;28.65;19.20;;;13.30;99.90;;;;;;5015029;28;20565;-83
2023/05/12 05:44:00;;;;;;;32.53;20.35;;;13.40;99.90;;;;;;5016346;28;20041;-82
2023/05/12 05:46:26;;;;;;;31.15;20.30;;;13.40;99.90;;;;;;5013890;28;20068;-83
2023/05/12 05:48:51;;;;;;;29.98;19.45;;;13.50;99.90;;;;;;5013446;28;20025;-83
2023/05/12 05:51:17;;;;;;;26.17;17.35;;;13.50;99.90;;;;;;5015291;28;20040;-83
2023/05/12 05:53:43;;;;;;;27.80;17.58;;;13.60;99.90;;;;;;5018031;28;20031;-83
2023/05/12 05:56:08;;;;;;;27.35;18.17;;;13.70;99.90;;;;;;5018860;28;20029;-83
2023/05/12 05:58:34;;;;;;;26.90;17.15;;;13.70;99.90;;;;;;5018705;28;20685;-84
2023/05/12 06:00:59;;;;;;;25.60;17.52;;;13.70;99.90;;;;;;5017443;28;20030;-82
2023/05/12 06:03:25;;;;;;;28.67;18.27;;;13.80;99.90;;;;;;5016749;28;20072;-82
2023/05/12 06:05:51;;;;;;;24.67;16.35;;;13.80;99.90;;;;;;5017864;28;20030;-83
2023/05/12 06:08:16;;;;;;;27.10;17.13;;;13.90;99.90;;;;;;5016208;28;20390;-83
2023/05/12 06:10:42;;;;;;;31.77;20.13;;;13.90;99.90;;;;;;5017827;28;20123;-82
2023/05/12 06:13:07;;;;;;;26.02;18.77;;;13.90;99.90;;;;;;5018582;28;20026;-82
2023/05/12 06:15:33;;;;;;;30.65;21.02;;;14.00;99.90;;;;;;5017330;28;20034;-83
2023/05/12 06:17:59;;;;;;;26.58;19.23;;;14.00;99.90;;;;;;5016943;28;21024;-84
2023/05/12 06:20:25;;;;;;;32.40;21.23;;;14.00;99.90;;;;;;5017393;28;20049;-81
2023/05/12 06:22:51;;;;;;;32.40;22.83;;;14.10;99.90;;;;;;5017211;28;20518;-83
2023/05/12 06:25:17;;;;;;;31.63;22.48;;;14.10;99.90;;;;;;5014733;28;20033;-82
2023/05/12 06:27:42;;;;;;;30.05;21.33;;;14.10;99.90;;;;;;5017856;28;20434;-83
2023/05/12 06:30:08;;;;;;;29.27;20.60;;;14.10;99.90;;;;;;5020201;28;20030;-83
2023/05/12 06:32:34;;;;;;;30.63;21.50;;;14.20;99.90;;;;;;5016466;28;20136;-83
2023/05/12 06:34:59;;;;;;;27.95;21.17;;;14.20;99.90;;;;;;5016567;28;20033;-83
2023/05/12 06:37:25;;;;;;;26.60;19.88;;;14.20;99.90;;;;;;5016675;28;20179;-83
2023/05/12 06:39:51;;;;;;;24.75;18.60;;;14.30;99.90;;;;;;5017767;28;20956;-83
2023/05/12 06:42:16;;;;;;;27.67;17.83;;;14.30;99.90;;;;;;5016047;28;20025;-84
2023/05/12 06:44:42;;;;;;;25.75;18.23;;;14.30;99.90;;;;;;5018330;28;20121;-84
2023/05/12 06:47:08;;;;;;;26.58;18.23;;;14.40;99.90;;;;;;5016787;28;20037;-83
2023/05/12 06:49:35;;;;;;;31.35;19.35;;;14.40;99.90;;;;;;5015420;28;20459;-84
2023/05/12 06:52:02;;;;;;;24.50;17.60;;;14.50;99.90;;;;;;5018240;28;20029;-84
2023/05/12 06:54:27;;;;;;;27.80;18.17;;;14.60;99.90;;;;;;5016311;28;20061;-82
2023/05/12 06:56:53;;;;;;;24.10;17.85;;;14.60;99.90;;;;;;5016052;28;20117;-82
2023/05/12 06:59:18;;;;;;;24.85;18.13;;;14.70;99.90;;;;;;5018796;28;20042;-83
2023/05/12 07:01:44;;;;;;;25.25;18.27;;;14.60;99.90;;;;;;5015365;28;20100;-83
2023/05/12 07:04:10;;;;;;;24.63;16.95;;;14.70;99.90;;;;;;5015992;28;20144;-83
2023/05/12 07:06:35;;;;;;;25.02;18.38;;;14.70;99.90;;;;;;5015489;28;20646;-83
2023/05/12 07:09:01;;;;;;;21.60;15.98;;;14.80;99.90;;;;;;5020587;28;20025;-83
2023/05/12 07:11:27;;;;;;;21.33;16.30;;;14.80;99.90;;;;;;5016016;28;20064;-83
2023/05/12 07:13:52;;;;;;;21.92;16.05;;;14.90;99.90;;;;;;5032245;28;20525;-82
2023/05/12 07:16:18;;;;;;;26.38;17.80;;;14.90;99.90;;;;;;5015539;28;20026;-82
2023/05/12 07:18:45;;;;;;;20.02;15.30;;;15.00;99.90;;;;;;5015923;28;20060;-83
2023/05/12 07:21:10;;;;;;;19.38;14.85;;;15.00;99.90;;;;;;5030785;28;20036;-83
2023/05/12 07:23:36;;;;;;;19.13;14.57;;;15.10;99.90;;;;;;5016461;28;20029;-83
2023/05/12 07:26:03;;;;;;;18.35;13.70;;;15.20;99.90;;;;;;5015101;28;20033;-83
2023/05/12 07:28:35;;;;;;;18.40;13.70;;;15.30;99.90;;;;;;5016197;28;20018;-84
2023/05/12 07:31:08;;;;;;;19.52;15.13;;;15.40;99.90;;;;;;5016487;28;20052;-84
2023/05/12 07:33:34;;;;;;;16.27;12.93;;;15.40;99.90;;;;;;5014777;28;20043;-83
2023/05/12 07:36:01;;;;;;;15.70;12.10;;;15.40;99.90;;;;;;5014601;28;21028;-84
2023/05/12 07:38:27;;;;;;;16.13;13.23;;;15.40;99.90;;;;;;5015216;28;20491;-83
2023/05/12 07:40:53;;;;;;;15.13;12.13;;;15.50;99.90;;;;;;5016407;28;20030;-82
2023/05/12 07:43:19;;;;;;;15.48;11.50;;;15.50;99.90;;;;;;5015555;28;20042;-82
2023/05/12 07:45:45;;;;;;;14.70;11.68;;;15.50;99.90;;;;;;5016821;28;20108;-82
2023/05/12 07:48:11;;;;;;;13.48;11.18;;;15.50;99.90;;;;;;5021274;28;20497;-86
2023/05/12 07:50:37;;;;;;;13.55;10.95;;;15.50;99.90;;;;;;5031839;28;20104;-85
2023/05/12 07:53:03;;;;;;;13.65;11.48;;;15.60;99.90;;;;;;5032730;28;20151;-84
2023/05/12 07:55:29;;;;;;;15.00;12.05;;;15.60;99.90;;;;;;5015393;28;20096;-84
2023/05/12 07:57:55;;;;;;;14.70;11.50;;;15.60;99.90;;;;;;5017741;28;20402;-84
2023/05/12 08:00:20;;;;;;;13.23;10.88;;;15.60;99.90;;;;;;5016618;28;20383;-84
2023/05/12 08:02:46;;;;;;;13.93;11.07;;;15.70;99.90;;;;;;5015309;28;20037;-84
2023/05/12 08:05:12;;;;;;;12.43;10.45;;;15.80;99.90;;;;;;5013634;28;20501;-84
2023/05/12 08:07:38;;;;;;;13.13;10.90;;;15.80;99.90;;;;;;5012692;28;20034;-84
2023/05/12 08:10:05;;;;;;;12.82;10.38;;;15.80;99.90;;;;;;5015027;28;20033;-83
2023/05/12 08:12:31;;;;;;;12.48;9.93;;;15.90;99.90;;;;;;5013415;28;20487;-84
2023/05/12 08:14:57;;;;;;;13.10;10.98;;;16.00;99.90;;;;;;5024735;28;20094;-84
2023/05/12 08:17:22;;;;;;;13.10;10.43;;;16.00;99.90;;;;;;5013758;28;20463;-83
2023/05/12 08:19:48;;;;;;;12.07;9.20;;;16.10;99.90;;;;;;5013243;28;20884;-84
2023/05/12 08:22:13;;;;;;;11.25;8.85;;;16.20;99.90;;;;;;5014302;28;20075;-83
2023/05/12 08:24:39;;;;;;;11.27;8.25;;;16.40;99.90;;;;;;5019163;28;20562;-83
2023/05/12 08:27:04;;;;;;;9.70;7.68;;;16.50;99.90;;;;;;5024154;28;20022;-82
2023/05/12 08:29:30;;;;;;;8.65;7.13;;;16.60;99.90;;;;;;5015445;28;20061;-84
2023/05/12 08:31:57;;;;;;;10.13;7.35;;;16.80;99.90;;;;;;5016806;28;20057;-84
2023/05/12 08:34:23;;;;;;;8.30;6.90;;;16.80;99.90;;;;;;5013981;28;20053;-84
2023/05/12 08:36:50;;;;;;;9.27;7.20;;;16.90;99.90;;;;;;5013676;28;20057;-83
2023/05/12 08:39:16;;;;;;;10.40;7.95;;;16.90;99.90;;;;;;5014313;28;20557;-82
2023/05/12 08:41:53;;;;;;;8.48;6.45;;;16.90;99.90;;;;;;5015690;28;20116;-82
2023/05/12 08:44:19;;;;;;;8.23;7.00;;;16.90;99.90;;;;;;5014721;28;20248;-83
2023/05/12 08:46:47;;;;;;;8.07;6.57;;;17.00;99.90;;;;;;5016240;28;20049;-83
2023/05/12 08:49:16;;;;;;;7.82;6.43;;;17.10;99.90;;;;;;5014181;28;20100;-83
2023/05/12 08:51:44;;;;;;;7.18;5.97;;;17.10;99.90;;;;;;5014334;28;20028;-82
2023/05/12 08:54:12;;;;;;;6.18;4.80;;;17.20;99.90;;;;;;5014408;28;20029;-82
2023/05/12 08:56:39;;;;;;;5.72;4.53;;;17.30;99.90;;;;;;5013488;28;20037;-80
2023/05/12 08:59:07;;;;;;;6.15;4.95;;;17.50;99.90;;;;;;5012531;28;20033;-79
2023/05/12 09:01:36;;;;;;;5.95;4.72;;;17.70;99.90;;;;;;5013197;28;20038;-80
2023/05/12 09:04:03;;;;;;;4.97;4.20;;;17.80;99.90;;;;;;5011616;28;20088;-80
2023/05/12 09:06:29;;;;;;;4.72;4.13;;;17.90;99.90;;;;;;5011196;28;20036;-80
2023/05/12 09:08:55;;;;;;;6.53;4.82;;;18.00;99.90;;;;;;5013236;28;20021;-79
2023/05/12 09:11:21;;;;;;;5.15;4.03;;;18.10;99.90;;;;;;5012132;28;20046;-79
2023/05/12 09:13:59;;;;;;;4.55;3.72;;;18.30;99.90;;;;;;5011624;28;20776;-80
2023/05/12 09:16:32;;;;;;;3.88;3.15;;;18.40;99.90;;;;;;5012910;28;20029;-79
2023/05/12 09:18:59;;;;;;;3.55;3.17;;;18.60;99.90;;;;;;5012837;28;20049;-79
2023/05/12 09:21:25;;;;;;;3.83;3.13;;;18.80;99.90;;;;;;5011782;28;21202;-80
2023/05/12 09:23:56;;;;;;;5.65;3.00;;;19.00;99.90;;;;;;5011295;28;20528;-79
2023/05/12 09:26:23;;;;;;;3.30;2.83;;;19.10;99.90;;;;;;5025727;28;20036;-79
2023/05/12 09:28:50;;;;;;;3.22;2.53;;;19.00;99.90;;;;;;5013106;28;20040;-80
2023/05/12 09:31:22;;;;;;;3.00;2.42;;;19.00;99.90;;;;;;5010982;28;20057;-79
2023/05/12 09:33:49;;;;;;;2.67;2.00;;;19.10;99.90;;;;;;5012458;28;20444;-79
2023/05/12 09:36:22;;;;;;;2.58;1.77;;;19.00;99.90;;;;;;5011799;28;20021;-80
2023/05/12 09:39:03;;;;;;;;;;;19.20;99.90;;;;;;5011669;28;20034;-80
2023/05/12 09:41:29;;;;;;;2.72;2.03;;;19.20;99.90;;;;;;5012969;28;19920;-80
2023/05/12 09:43:55;;;;;;;2.28;1.63;;;19.20;99.90;;;;;;5012871;28;20030;-80
2023/05/12 09:46:23;;;;;;;2.00;1.80;;;19.20;99.90;;;;;;5011943;28;20037;-80
2023/05/12 09:48:48;;;;;;;2.25;1.67;;;19.20;99.90;;;;;;5011948;28;20530;-79
2023/05/12 09:51:17;;;;;;;2.38;1.70;;;19.20;99.90;;;;;;5011223;28;20041;-80
2023/05/12 09:53:45;;;;;;;2.58;2.00;;;19.30;99.90;;;;;;5012098;28;20025;-80
2023/05/12 09:56:12;;;;;;;1.77;1.52;;;19.40;99.90;;;;;;5011178;28;20386;-81
2023/05/12 09:58:43;;;;;;;2.00;1.70;;;19.40;99.90;;;;;;5010879;28;20042;-80
2023/05/12 10:01:13;;;;;;;2.10;1.63;;;19.40;99.90;;;;;;5014122;28;20026;-80
2023/05/12 10:03:44;;;;;;;3.40;2.17;;;19.30;99.90;;;;;;5010221;28;20063;-81
2023/05/12 10:06:13;;;;;;;3.05;1.77;;;19.30;99.90;;;;;;5026649;28;21191;-80
2023/05/12 10:08:52;;;;;;;2.10;1.40;;;19.20;99.90;;;;;;5010748;28;20469;-80
2023/05/12 10:11:20;;;;;;;2.47;1.90;;;19.10;99.90;;;;;;5012909;28;20095;-81
2023/05/12 10:13:46;;;;;;;2.53;1.83;;;19.10;99.90;;;;;;5010877;28;22330;-80
2023/05/12 10:16:12;;;;;;;2.25;1.80;;;19.20;99.90;;;;;;5011036;28;20023;-80
2023/05/12 10:18:38;;;;;;;3.00;1.77;;;19.30;99.90;;;;;;5024965;28;20037;-81
2023/05/12 10:21:05;;;;;;;2.33;1.80;;;19.20;99.90;;;;;;5007705;28;20391;-80
2023/05/12 10:23:31;;;;;;;3.13;1.80;;;19.20;99.90;;;;;;5010456;28;20508;-80
2023/05/12 10:26:00;;;;;;;1.63;1.52;;;19.20;99.90;;;;;;5012082;28;20045;-80
2023/05/12 10:28:27;;;;;;;1.75;1.40;;;19.30;99.90;;;;;;5010399;28;20136;-81
2023/05/12 10:30:54;;;;;;;2.67;1.63;;;19.50;99.90;;;;;;5011430;28;20068;-80
2023/05/12 10:33:20;;;;;;;2.13;1.60;;;19.80;99.90;;;;;;5009980;28;20029;-80
2023/05/12 10:35:46;;;;;;;2.42;1.75;;;19.90;99.90;;;;;;5010165;28;20030;-81
2023/05/12 10:38:18;;;;;;;2.40;1.83;;;20.20;99.90;;;;;;5013303;28;20131;-81
2023/05/12 10:41:02;;;;;;;2.28;1.70;;;20.40;99.90;;;;;;5016158;28;20428;-80
2023/05/12 10:43:44;;;;;;;2.42;1.73;;;20.60;99.90;;;;;;5028493;28;20692;-80
2023/05/12 10:46:19;;;;;;;2.08;1.63;;;20.80;99.90;;;;;;5013905;28;20034;-80
2023/05/12 10:49:11;;;;;;;2.33;1.45;;;21.00;99.90;;;;;;5013818;28;20773;-80
2023/05/12 10:51:36;;;;;;;3.17;1.85;;;21.30;99.90;;;;;;5014308;28;20029;-81
2023/05/12 10:54:05;;;;;;;2.05;1.70;;;21.20;99.90;;;;;;5015205;28;20040;-78
2023/05/12 10:56:42;;;;;;;2.63;1.70;;;21.30;99.90;;;;;;5013019;28;20029;-82
2023/05/12 10:59:12;;;;;;;2.78;1.50;;;21.60;99.90;;;;;;5014211;28;20044;-81
2023/05/12 11:01:41;;;;;;;3.05;1.52;;;21.90;99.90;;;;;;5011492;28;20606;-80
2023/05/12 11:04:14;;;;;;;2.50;1.75;;;22.00;99.90;;;;;;5015252;28;20079;-79
2023/05/12 11:06:40;;;;;;;2.22;1.40;;;22.30;99.90;;;;;;5015912;28;20524;-80
2023/05/12 11:09:06;;;;;;;2.47;1.70;;;22.80;99.90;;;;;;5014193;28;20026;-80
2023/05/12 11:11:32;;;;;;;2.17;1.48;;;23.40;99.90;;;;;;5013816;28;20051;-79
2023/05/12 11:13:59;;;;;;;1.63;1.40;;;23.80;99.90;;;;;;5014422;28;20033;-80
2023/05/12 11:16:25;;;;;;;1.35;1.17;;;24.00;99.90;;;;;;5011902;28;20393;-79
2023/05/12 11:19:04;;;;;;;1.23;1.10;;;24.10;99.90;;;;;;5013568;28;20040;-81
2023/05/12 11:21:31;;;;;;;2.33;1.40;;;24.60;99.90;;;;;;5014666;28;20033;-82
2023/05/12 11:23:58;;;;;;;1.40;1.00;;;24.70;99.90;;;;;;5012121;28;20025;-81
2023/05/12 11:26:24;;;;;;;1.70;1.25;;;24.60;99.90;;;;;;5011466;28;20058;-80
2023/05/12 11:28:49;;;;;;;2.08;1.40;;;24.30;99.90;;;;;;5011885;28;20144;-83
2023/05/12 11:31:19;;;;;;;1.75;1.20;;;23.90;99.90;;;;;;5011080;28;20112;-80
2023/05/12 11:33:45;;;;;;;2.38;1.42;;;23.60;99.90;;;;;;5013275;28;20080;-80
2023/05/12 11:36:10;;;;;;;2.15;1.40;;;23.50;99.90;;;;;;5012655;28;20041;-81
2023/05/12 11:38:36;;;;;;;1.67;1.30;;;23.40;99.90;;;;;;5012629;28;20038;-80
2023/05/12 11:41:02;;;;;;;1.80;1.30;;;23.40;99.90;;;;;;5011862;28;20483;-80
2023/05/12 11:43:28;;;;;;;1.25;1.10;;;23.50;99.90;;;;;;5012685;28;20042;-80
2023/05/12 11:45:54;;;;;;;2.42;1.20;;;23.50;99.90;;;;;;5014292;28;20021;-81
2023/05/12 11:48:21;;;;;;;1.67;1.20;;;23.50;99.90;;;;;;5013371;28;20044;-80
2023/05/12 11:50:48;;;;;;;1.45;1.20;;;23.50;99.90;;;;;;5014410;28;20030;-81
2023/05/12 11:53:16;;;;;;;1.65;1.10;;;23.50;99.90;;;;;;5013181;28;20092;-80
2023/05/12 11:55:53;;;;;;;1.48;1.38;;;23.90;99.90;;;;;;5012790;28;20030;-80
2023/05/12 11:58:29;;;;;;;1.35;1.00;;;24.50;99.90;;;;;;5028311;28;20045;-80
2023/05/12 12:00:56;;;;;;;2.03;1.40;;;25.30;99.90;;;;;;5014269;28;20018;-80
2023/05/12 12:03:23;;;;;;;2.42;1.50;;;26.10;99.90;;;;;;5011778;28;20037;-80
2023/05/12 12:06:01;;;;;;;3.28;1.20;;;26.70;99.90;;;;;;5013284;28;20025;-80
2023/05/12 12:08:26;;;;;;;1.80;1.30;;;27.00;99.90;;;;;;5012147;28;20083;-82
2023/05/12 12:10:52;;;;;;;3.65;1.42;;;27.20;99.90;;;;;;5012839;28;20053;-81
2023/05/12 12:13:24;;;;;;;1.85;1.30;;;27.30;99.90;;;;;;5012012;28;20042;-82
2023/05/12 12:15:51;;;;;;;1.77;1.30;;;27.00;99.90;;;;;;5027895;28;20052;-82
2023/05/12 12:18:17;;;;;;;3.35;1.30;;;26.40;99.90;;;;;;5026496;28;20037;-78
2023/05/12 12:20:46;;;;;;;1.83;1.20;;;25.80;99.90;;;;;;5013630;28;20028;-80
2023/05/12 12:23:12;;;;;;;1.20;1.00;;;25.50;99.90;;;;;;5012952;28;20148;-80
2023/05/12 12:25:37;;;;;;;1.30;1.08;;;25.20;99.90;;;;;;5010720;28;20490;-80
2023/05/12 12:28:03;;;;;;;2.35;1.15;;;25.00;99.90;;;;;;5012217;28;20076;-79
2023/05/12 12:30:29;;;;;;;1.80;1.15;;;25.00;99.90;;;;;;5011607;28;20040;-81
2023/05/12 12:32:55;;;;;;;2.45;1.13;;;25.00;99.90;;;;;;5011566;28;20025;-79
2023/05/12 12:35:20;;;;;;;1.73;1.20;;;24.90;99.90;;;;;;5011898;28;20063;-80